Time;durP1;ratioP1;P1;durP2;ratioP2;P2;SDS_P1;SDS_P2;PMS_P1;PMS_P2;Temp;Humidity;BMP_temperature;BMP_pressure;BME280_temperature;BME280_humidity;BME280_pressure;Samples;Min_cycle;Max_cycle;Signal;HPM_P1;HPM_P2
2023/03/29 00:00:48;;;;;;;;;;;7.60;70.40;;;;;;9182958;19;20280;-63
2023/03/29 00:03:56;;;;;;;;;;;7.60;70.40;;;;;;9181810;19;19918;-62
2023/03/29 00:07:03;;;;;;;;;;;7.60;70.40;;;;;;9181433;19;19918;-63
2023/03/29 00:10:10;;;;;;;;;;;7.60;70.40;;;;;;9178371;19;19918;-63
2023/03/29 00:13:14;;;;;;;;;;;7.60;70.60;;;;;;9178329;19;19919;-63
2023/03/29 00:16:20;;;;;;;;;;;7.50;70.50;;;;;;9179277;19;19933;-63
2023/03/29 00:19:27;;;;;;;;;;;7.50;70.50;;;;;;9181739;19;19923;-63
2023/03/29 00:22:33;;;;;;;;;;;7.50;70.50;;;;;;9177455;19;20249;-64
2023/03/29 00:25:37;;;;;;;;;;;7.50;70.60;;;;;;9181674;19;19919;-63
2023/03/29 00:28:43;;;;;;;;;;;7.50;70.60;;;;;;9182886;19;19922;-64
2023/03/29 00:31:52;;;;;;;;;;;7.50;70.60;;;;;;9180757;19;19919;-63
2023/03/29 00:35:03;;;;;;;;;;;7.50;70.60;;;;;;9179759;19;19922;-64
2023/03/29 00:38:07;;;;;;;;;;;7.50;70.60;;;;;;9182713;19;19927;-63
2023/03/29 00:41:14;;;;;;;;;;;7.50;70.60;;;;;;9180210;19;19922;-63
2023/03/29 00:44:33;;;;;;;;;;;7.50;70.70;;;;;;9177592;19;20440;-63
2023/03/29 00:47:41;;;;;;;;;;;7.50;70.70;;;;;;9182642;19;19950;-63
2023/03/29 00:50:50;;;;;;;;;;;7.50;70.70;;;;;;9180996;19;19925;-63
2023/03/29 00:53:57;;;;;;;;;;;7.50;70.70;;;;;;9180152;19;19933;-64
2023/03/29 00:57:02;;;;;;;;;;;7.50;70.70;;;;;;9179640;19;19929;-63
2023/03/29 01:00:10;;;;;;;;;;;7.50;70.80;;;;;;9180250;19;19918;-63
2023/03/29 01:03:23;;;;;;;;;;;7.50;70.70;;;;;;9180983;19;19923;-63
2023/03/29 01:06:33;;;;;;;;;;;7.50;70.80;;;;;;9183335;19;19915;-63
2023/03/29 01:09:39;;;;;;;;;;;7.40;70.70;;;;;;9178544;19;20286;-63
2023/03/29 01:12:48;;;;;;;;;;;7.40;70.70;;;;;;9179207;19;19922;-64
2023/03/29 01:15:54;;;;;;;;;;;7.40;70.70;;;;;;9175703;19;19933;-63
2023/03/29 01:19:02;;;;;;;;;;;7.40;71.40;;;;;;9177564;19;19938;-66
2023/03/29 01:22:12;;;;;;;;;;;7.40;70.80;;;;;;9180533;19;20270;-62
2023/03/29 01:25:25;;;;;;;;;;;7.40;70.80;;;;;;9180950;19;20415;-63
2023/03/29 01:28:34;;;;;;;;;;;7.40;70.80;;;;;;9180202;19;19922;-63
2023/03/29 01:31:43;;;;;;;;;;;7.40;70.90;;;;;;9180945;19;20366;-63
2023/03/29 01:34:51;;;;;;;;;;;7.40;70.90;;;;;;9177028;19;20369;-62
2023/03/29 01:37:59;;;;;;;;;;;7.40;70.90;;;;;;9180144;19;19921;-64
2023/03/29 01:41:04;;;;;;;;;;;7.40;71.00;;;;;;9179034;19;19955;-63
2023/03/29 01:44:15;;;;;;;;;;;7.40;71.00;;;;;;9175358;19;19918;-63
2023/03/29 01:47:21;;;;;;;;;;;7.40;71.00;;;;;;9179516;19;20353;-63
2023/03/29 01:50:34;;;;;;;;;;;7.40;71.00;;;;;;9179834;19;19919;-64
2023/03/29 01:53:40;;;;;;;;;;;7.40;71.00;;;;;;9178506;19;19923;-63
2023/03/29 01:56:50;;;;;;;;;;;7.40;71.00;;;;;;9177719;19;19915;-63
2023/03/29 01:59:57;;;;;;;;;;;7.40;71.00;;;;;;9180159;19;19948;-63
2023/03/29 02:03:05;;;;;;;;;;;7.40;71.00;;;;;;9179245;19;19923;-63
2023/03/29 02:06:11;;;;;;;;;;;7.40;71.00;;;;;;9178594;19;19952;-63
2023/03/29 02:09:17;;;;;;;;;;;7.40;71.10;;;;;;9177164;19;19915;-63
2023/03/29 02:12:21;;;;;;;;;;;7.40;71.10;;;;;;9179531;19;20529;-63
2023/03/29 02:15:29;;;;;;;;;;;7.40;71.10;;;;;;9174573;19;19922;-64
2023/03/29 02:18:33;;;;;;;;;;;7.50;71.10;;;;;;9178273;19;19956;-62
2023/03/29 02:21:46;;;;;;;;;;;7.40;71.10;;;;;;9177305;19;19922;-63
2023/03/29 02:24:51;;;;;;;;;;;7.50;71.20;;;;;;9177064;19;20769;-63
2023/03/29 02:27:59;;;;;;;;;;;7.50;71.20;;;;;;9176836;19;19915;-65
2023/03/29 02:31:09;;;;;;;;;;;7.50;71.20;;;;;;9176837;19;19928;-65
2023/03/29 02:34:18;;;;;;;;;;;7.50;71.20;;;;;;9175499;19;19923;-65
2023/03/29 02:37:25;;;;;;;;;;;7.50;71.20;;;;;;9175909;19;19926;-64
2023/03/29 02:40:35;;;;;;;;;;;7.50;71.20;;;;;;9176789;19;19926;-64
2023/03/29 02:43:41;;;;;;;;;;;7.50;71.20;;;;;;9170996;19;19915;-64
2023/03/29 02:46:50;;;;;;;;;;;7.50;71.20;;;;;;9182692;19;19926;-64
2023/03/29 02:49:54;;;;;;;;;;;7.50;71.30;;;;;;9185268;19;19918;-62
2023/03/29 02:53:03;;;;;;;;;;;7.50;71.20;;;;;;9184461;19;19915;-63
2023/03/29 02:56:09;;;;;;;;;;;7.50;71.20;;;;;;9179813;19;19925;-64
2023/03/29 02:59:15;;;;;;;;;;;7.50;71.30;;;;;;9183704;19;20261;-63
2023/03/29 03:02:21;;;;;;;;;;;7.50;71.20;;;;;;9184450;19;19918;-63
2023/03/29 03:05:27;;;;;;;;;;;7.50;71.30;;;;;;9185292;19;19925;-64
2023/03/29 03:08:31;;;;;;;;;;;7.50;71.30;;;;;;9181781;19;20444;-63
2023/03/29 03:11:37;;;;;;;;;;;7.50;71.30;;;;;;9181158;19;19918;-63
2023/03/29 03:14:41;;;;;;;;;;;7.50;71.30;;;;;;9183991;19;19919;-63
2023/03/29 03:17:49;;;;;;;;;;;7.50;71.30;;;;;;9184871;19;19918;-64
2023/03/29 03:20:57;;;;;;;;;;;7.50;71.30;;;;;;9184137;19;19915;-63
2023/03/29 03:24:04;;;;;;;;;;;7.60;71.40;;;;;;9182714;19;20434;-64
2023/03/29 03:27:08;;;;;;;;;;;7.50;71.30;;;;;;9182704;19;19919;-63
2023/03/29 03:30:14;;;;;;;;;;;7.60;71.40;;;;;;9184445;19;19923;-63
2023/03/29 03:33:47;;;;;;;;;;;7.60;71.40;;;;;;9184282;19;20002;-63
2023/03/29 03:37:14;;;;;;;;;;;7.60;71.40;;;;;;9182439;19;19915;-64
2023/03/29 03:40:19;;;;;;;;;;;7.60;71.40;;;;;;9184563;19;20009;-64
2023/03/29 03:43:26;;;;;;;;;;;7.60;71.40;;;;;;9177457;19;20246;-64
2023/03/29 03:46:30;;;;;;;;;;;7.60;71.40;;;;;;9181820;19;19930;-64
2023/03/29 03:49:39;;;;;;;;;;;7.60;71.50;;;;;;9182168;19;20352;-63
2023/03/29 03:52:43;;;;;;;;;;;7.60;71.40;;;;;;9181926;19;19923;-63
2023/03/29 03:55:51;;;;;;;;;;;7.60;71.40;;;;;;9178917;19;19923;-63
2023/03/29 03:58:59;;;;;;;;;;;7.60;71.50;;;;;;9181682;19;19934;-64
2023/03/29 04:02:07;;;;;;;;;;;7.60;71.50;;;;;;9180982;19;19919;-63
2023/03/29 04:05:16;;;;;;;;;;;7.60;71.50;;;;;;9181301;19;20531;-63
2023/03/29 04:08:22;;;;;;;;;;;7.60;71.50;;;;;;9177887;19;19918;-64
2023/03/29 04:11:48;;;;;;;;;;;7.60;71.50;;;;;;9181885;19;20247;-63
2023/03/29 04:14:54;;;;;;;;;;;7.60;71.50;;;;;;9181797;19;19907;-63
2023/03/29 04:18:01;;;;;;;;;;;7.60;71.60;;;;;;9181119;19;19929;-63
2023/03/29 04:21:14;;;;;;;;;;;7.60;71.60;;;;;;9182295;19;19926;-63
2023/03/29 04:24:19;;;;;;;;;;;7.60;71.60;;;;;;9181421;19;19919;-63
2023/03/29 04:27:44;;;;;;;;;;;7.60;71.60;;;;;;9180648;19;19926;-63
2023/03/29 04:30:59;;;;;;;;;;;7.60;71.60;;;;;;9181101;19;19915;-63
2023/03/29 04:34:25;;;;;;;;;;;7.60;71.70;;;;;;9176771;19;20327;-63
2023/03/29 04:37:33;;;;;;;;;;;7.60;71.70;;;;;;9181082;19;19929;-64
2023/03/29 04:40:40;;;;;;;;;;;7.60;71.70;;;;;;9180082;19;19918;-63
2023/03/29 04:43:48;;;;;;;;;;;7.60;71.70;;;;;;9175456;19;19958;-63
2023/03/29 04:47:01;;;;;;;;;;;7.60;71.70;;;;;;9180288;19;19919;-63
2023/03/29 04:50:27;;;;;;;;;;;7.60;71.80;;;;;;9180202;19;19915;-63
2023/03/29 04:53:35;;;;;;;;;;;7.60;71.80;;;;;;9181837;19;19919;-63
2023/03/29 04:56:39;;;;;;;;;;;7.60;71.80;;;;;;9176751;19;19923;-63
2023/03/29 05:00:16;;;;;;;;;;;7.60;71.80;;;;;;9179821;19;19919;-63
2023/03/29 05:03:33;;;;;;;;;;;7.60;71.80;;;;;;9178807;19;20277;-63
2023/03/29 05:06:47;;;;;;;;;;;7.60;71.80;;;;;;9179335;19;20269;-62
2023/03/29 05:09:53;;;;;;;;;;;7.60;71.90;;;;;;9176615;19;19979;-63
2023/03/29 05:13:00;;;;;;;;;;;7.60;71.90;;;;;;9179012;19;19930;-63
2023/03/29 05:16:05;;;;;;;;;;;7.70;72.00;;;;;;9176958;19;19929;-63
2023/03/29 05:19:12;;;;;;;;;;;7.60;71.90;;;;;;9179619;19;19926;-63
2023/03/29 05:22:22;;;;;;;;;;;7.60;71.90;;;;;;9178914;19;19919;-63
2023/03/29 05:25:32;;;;;;;;;;;7.70;72.00;;;;;;9175762;19;19922;-63
2023/03/29 05:28:36;;;;;;;;;;;7.70;72.10;;;;;;9173048;19;19933;-63
2023/03/29 05:31:42;;;;;;;;;;;7.70;72.10;;;;;;9174082;19;19926;-64
2023/03/29 05:34:47;;;;;;;;;;;7.70;72.10;;;;;;9173956;19;20406;-63
2023/03/29 05:37:54;;;;;;;;;;;7.70;72.10;;;;;;9173964;19;19953;-64
2023/03/29 05:41:01;;;;;;;;;;;7.70;72.10;;;;;;9176766;19;20238;-63
2023/03/29 05:44:10;;;;;;;;;;;7.70;72.10;;;;;;9174712;19;19918;-63
2023/03/29 05:47:17;;;;;;;;;;;7.70;72.80;;;;;;9178324;19;19919;-63
2023/03/29 05:50:23;;;;;;;;;;;7.70;72.20;;;;;;9177859;19;19914;-63
2023/03/29 05:53:27;;;;;;;;;;;7.70;72.20;;;;;;9178491;19;19918;-63
2023/03/29 05:56:35;;;;;;;;;;;7.70;72.20;;;;;;9175101;19;19923;-64
2023/03/29 05:59:41;;;;;;;;;;;7.70;72.20;;;;;;9176082;19;19923;-63
2023/03/29 06:02:48;;;;;;;;;;;7.70;72.30;;;;;;9177563;19;19952;-65
2023/03/29 06:05:56;;;;;;;;;;;7.80;72.30;;;;;;9177264;19;19918;-63
2023/03/29 06:09:02;;;;;;;;;;;7.80;72.30;;;;;;9175023;19;19914;-63
2023/03/29 06:12:13;;;;;;;;;;;7.70;72.30;;;;;;9177464;19;19922;-66
2023/03/29 06:15:28;;;;;;;;;;;7.80;72.30;;;;;;9174633;19;19926;-63
2023/03/29 06:18:40;;;;;;;;;;;7.80;72.40;;;;;;9176145;19;19937;-63
2023/03/29 06:21:46;;;;;;;;;;;7.80;72.30;;;;;;9177388;19;19958;-63
2023/03/29 06:24:54;;;;;;;;;;;7.90;72.40;;;;;;9176991;19;20365;-63
2023/03/29 06:28:06;;;;;;;;;;;7.90;72.40;;;;;;9176765;19;19927;-63
2023/03/29 06:31:11;;;;;;;;;;;7.90;72.40;;;;;;9176238;19;19918;-63
2023/03/29 06:34:18;;;;;;;;;;;7.90;72.40;;;;;;9177528;19;19919;-64
2023/03/29 06:37:48;;;;;;;;;;;7.90;72.40;;;;;;9176524;19;19921;-63
2023/03/29 06:41:02;;;;;;;;;;;7.90;72.40;;;;;;9175696;19;20269;-63
2023/03/29 06:44:24;;;;;;;;;;;8.00;72.50;;;;;;9168608;19;20015;-63
2023/03/29 06:47:43;;;;;;;;;;;8.00;72.50;;;;;;9165109;19;19919;-63
2023/03/29 06:50:49;;;;;;;;;;;8.00;72.50;;;;;;9174366;19;19922;-64
2023/03/29 06:53:56;;;;;;;;;;;8.00;72.50;;;;;;9174085;19;19922;-63
2023/03/29 06:57:00;;;;;;;;;;;8.00;72.60;;;;;;9170523;19;19929;-63
2023/03/29 07:00:16;;;;;;;;;;;8.00;72.60;;;;;;9166150;19;19919;-63
2023/03/29 07:03:56;;;;;;;;;;;8.10;72.60;;;;;;9167887;19;19946;-63
2023/03/29 07:07:18;;;;;;;;;;;8.10;72.60;;;;;;9166734;19;19926;-63
2023/03/29 07:10:26;;;;;;;;;;;8.20;72.70;;;;;;9168424;19;20265;-63
2023/03/29 07:13:51;;;;;;;;;;;8.20;72.70;;;;;;9172068;19;19927;-63
2023/03/29 07:16:59;;;;;;;;;;;8.20;72.70;;;;;;9170848;19;19930;-64
2023/03/29 07:20:13;;;;;;;;;;;8.30;72.80;;;;;;9172650;19;19930;-64
2023/03/29 07:23:22;;;;;;;;;;;8.30;72.70;;;;;;9174562;19;19962;-63
2023/03/29 07:26:29;;;;;;;;;;;8.30;72.70;;;;;;9173209;19;19922;-64
2023/03/29 07:29:36;;;;;;;;;;;8.40;72.80;;;;;;9174845;19;19919;-63
2023/03/29 07:32:45;;;;;;;;;;;8.40;72.80;;;;;;9181574;19;19937;-64
2023/03/29 07:36:10;;;;;;;;;;;8.40;72.70;;;;;;9180593;19;19939;-64
2023/03/29 07:39:16;;;;;;;;;;;8.50;72.80;;;;;;9181892;19;19923;-64
2023/03/29 07:42:35;;;;;;;;;;;8.50;73.40;;;;;;9181472;19;19911;-63
2023/03/29 07:45:43;;;;;;;;;;;8.60;72.80;;;;;;9180989;19;19922;-63
2023/03/29 07:48:51;;;;;;;;;;;8.60;72.80;;;;;;9182073;19;20329;-63
2023/03/29 07:51:57;;;;;;;;;;;8.60;72.80;;;;;;9180768;19;20265;-63
2023/03/29 07:55:01;;;;;;;;;;;8.60;72.80;;;;;;9183069;19;19922;-64
2023/03/29 07:58:22;;;;;;;;;;;8.70;72.80;;;;;;9181449;19;19927;-63
2023/03/29 08:01:26;;;;;;;;;;;8.70;72.80;;;;;;9183422;19;20363;-66
2023/03/29 08:05:11;;;;;;;;;;;8.80;72.90;;;;;;9178857;19;20364;-64
2023/03/29 08:08:27;;;;;;;;;;;8.80;72.80;;;;;;9171744;19;20045;-64
2023/03/29 08:11:38;;;;;;;;;;;8.90;73.00;;;;;;9176755;19;19926;-64
2023/03/29 08:14:50;;;;;;;;;;;8.90;72.90;;;;;;9178297;19;19918;-65
2023/03/29 08:18:09;;;;;;;;;;;9.00;73.00;;;;;;9180032;19;19919;-64
2023/03/29 08:21:16;;;;;;;;;;;9.00;73.00;;;;;;9178543;19;20257;-63
2023/03/29 08:24:26;;;;;;;;;;;9.10;73.00;;;;;;9178572;19;19942;-63
2023/03/29 08:27:36;;;;;;;;;;;9.20;73.00;;;;;;9179899;19;19922;-63
2023/03/29 08:30:42;;;;;;;;;;;9.20;73.00;;;;;;9180399;19;19918;-63
2023/03/29 08:33:46;;;;;;;;;;;9.30;73.10;;;;;;9182708;19;20790;-63
2023/03/29 08:37:12;;;;;;;;;;;9.30;73.00;;;;;;9179536;19;20329;-63
2023/03/29 08:40:22;;;;;;;;;;;9.40;73.00;;;;;;9180077;19;19922;-63
2023/03/29 08:43:53;;;;;;;;;;;9.50;73.10;;;;;;9173681;19;19927;-64
2023/03/29 08:47:11;;;;;;;;;;;9.60;73.00;;;;;;9172632;19;20284;-62
2023/03/29 08:50:21;;;;;;;;;;;9.70;73.10;;;;;;9174443;19;19925;-63
2023/03/29 08:53:30;;;;;;;;;;;9.80;73.10;;;;;;9179100;19;19922;-63
2023/03/29 08:56:46;;;;;;;;;;;9.80;73.00;;;;;;9177321;19;19923;-62
2023/03/29 09:00:05;;;;;;;;;;;9.90;73.00;;;;;;9179180;19;19926;-63
2023/03/29 09:03:20;;;;;;;;;;;10.00;73.10;;;;;;9169123;19;19921;-63
2023/03/29 09:06:25;;;;;;;;;;;10.10;73.10;;;;;;9173504;19;19925;-63
2023/03/29 09:09:41;;;;;;;;;;;10.20;73.10;;;;;;9172525;19;19929;-62
2023/03/29 09:13:00;;;;;;;;;;;10.30;73.10;;;;;;9179114;19;20335;-63
2023/03/29 09:16:11;;;;;;;;;;;10.40;73.10;;;;;;9176778;19;19918;-62
2023/03/29 09:19:20;;;;;;;;;;;10.50;73.10;;;;;;9178294;19;20531;-63
2023/03/29 09:22:35;;;;;;;;;;;10.60;73.20;;;;;;9178014;19;20582;-63
2023/03/29 09:25:49;;;;;;;;;;;10.70;73.20;;;;;;9178885;19;19986;-63
2023/03/29 09:29:05;;;;;;;;;;;10.80;73.80;;;;;;9178651;19;20293;-63
2023/03/29 09:32:18;;;;;;;;;;;10.90;73.20;;;;;;9180652;19;19918;-63
2023/03/29 09:35:31;;;;;;;;;;;11.00;73.80;;;;;;9176205;19;19929;-63
2023/03/29 09:38:36;;;;;;;;;;;11.00;73.10;;;;;;9177722;19;19919;-63
2023/03/29 09:41:47;;;;;;;;;;;11.10;73.10;;;;;;9179178;19;19927;-64
2023/03/29 09:44:56;;;;;;;;;;;11.20;73.10;;;;;;9171743;19;19926;-63
2023/03/29 09:48:12;;;;;;;;;;;11.30;73.10;;;;;;9178385;19;19922;-64
2023/03/29 09:51:18;;;;;;;;;;;11.40;73.10;;;;;;9178302;19;20318;-64
2023/03/29 09:54:25;;;;;;;;;;;11.40;73.10;;;;;;9176341;19;19923;-64
2023/03/29 09:58:01;;;;;;;;;;;11.50;73.10;;;;;;9178782;19;19910;-64
2023/03/29 10:01:16;;;;;;;;;;;11.50;73.00;;;;;;9177526;19;19922;-64
2023/03/29 10:04:21;;;;;;;;;;;11.60;73.10;;;;;;9177046;19;19923;-63
2023/03/29 10:07:43;;;;;;;;;;;11.60;73.00;;;;;;9177365;19;19919;-63
2023/03/29 10:10:48;;;;;;;;;;;11.70;73.10;;;;;;9167052;19;20400;-63
2023/03/29 10:13:58;;;;;;;;;;;11.80;73.10;;;;;;9159827;19;19927;-63
2023/03/29 10:17:05;;;;;;;;;;;11.80;73.10;;;;;;9161724;19;20018;-63
2023/03/29 10:20:15;;;;;;;;;;;11.80;73.00;;;;;;9166146;19;19918;-63
2023/03/29 10:23:20;;;;;;;;;;;11.90;73.10;;;;;;9162501;19;19926;-63
2023/03/29 10:26:28;;;;;;;;;;;11.90;73.00;;;;;;9167131;19;19919;-64
2023/03/29 10:29:39;;;;;;;;;;;12.00;73.10;;;;;;9168563;19;19927;-64
2023/03/29 10:32:45;;;;;;;;;;;12.00;73.10;;;;;;9171125;19;19915;-64
2023/03/29 10:35:49;;;;;;;;;;;12.10;73.10;;;;;;9159428;19;19926;-63
2023/03/29 10:38:58;;;;;;;;;;;12.10;73.10;;;;;;9172243;19;20273;-64
2023/03/29 10:42:03;;;;;;;;;;;12.20;73.10;;;;;;9170941;19;19915;-64
2023/03/29 10:45:22;;;;;;;;;;;12.20;73.10;;;;;;9171679;19;20325;-63
2023/03/29 10:48:28;;;;;;;;;;;12.30;73.10;;;;;;9176837;19;19930;-63
2023/03/29 10:51:34;;;;;;;;;;;12.30;73.10;;;;;;9176873;19;19929;-63
2023/03/29 10:54:38;;;;;;;;;;;12.40;73.10;;;;;;9176495;19;20008;-63
2023/03/29 10:57:48;;;;;;;;;;;12.40;73.10;;;;;;9173080;19;20391;-64
2023/03/29 11:00:57;;;;;;;;;;;12.50;73.10;;;;;;9176140;19;19919;-63
2023/03/29 11:04:09;;;;;;;;;;;12.50;73.10;;;;;;9176200;19;19925;-64
2023/03/29 11:07:30;;;;;;;;;;;12.60;73.10;;;;;;9182076;19;19914;-64
2023/03/29 11:10:40;;;;;;;;;;;12.70;73.20;;;;;;9172755;19;19937;-64
2023/03/29 11:13:50;;;;;;;;;;;12.80;73.20;;;;;;9173719;19;19930;-64
2023/03/29 11:17:02;;;;;;;;;;;12.80;73.10;;;;;;9167122;19;19926;-63
2023/03/29 11:20:16;;;;;;;;;;;12.90;73.20;;;;;;9170352;19;20327;-64
2023/03/29 11:23:27;;;;;;;;;;;13.00;73.10;;;;;;9168893;19;20281;-63
2023/03/29 11:26:35;;;;;;;;;;;13.10;73.10;;;;;;9170645;19;19918;-63
2023/03/29 11:29:45;;;;;;;;;;;13.20;73.10;;;;;;9169326;19;19924;-63
2023/03/29 11:32:56;;;;;;;;;;;13.30;73.10;;;;;;9168124;19;19986;-63
2023/03/29 11:36:06;;;;;;;;;;;13.30;73.10;;;;;;9167863;19;19919;-63
2023/03/29 11:39:22;;;;;;;;;;;13.40;73.00;;;;;;9171453;19;19931;-63
2023/03/29 11:42:32;;;;;;;;;;;13.60;73.10;;;;;;9170904;19;19911;-63
2023/03/29 11:45:38;;;;;;;;;;;13.60;73.00;;;;;;9165777;19;19929;-63
2023/03/29 11:48:50;;;;;;;;;;;13.60;73.00;;;;;;9169433;19;19922;-63
2023/03/29 11:51:56;;;;;;;;;;;13.70;73.10;;;;;;9169396;19;19966;-64
2023/03/29 11:55:03;;;;;;;;;;;13.80;73.10;;;;;;9168751;19;19918;-63
2023/03/29 11:58:11;;;;;;;;;;;13.80;73.00;;;;;;9165915;19;19926;-63
2023/03/29 12:01:19;;;;;;;;;;;13.90;73.10;;;;;;9172644;19;19919;-63
2023/03/29 12:04:30;;;;;;;;;;;13.90;73.10;;;;;;9169843;19;19922;-63
2023/03/29 12:07:38;;;;;;;;;;;14.00;73.10;;;;;;9170293;19;20280;-63
2023/03/29 12:10:44;;;;;;;;;;;14.00;73.10;;;;;;9167945;19;20272;-64
2023/03/29 12:13:52;;;;;;;;;;;14.10;73.10;;;;;;9168291;19;19922;-63
2023/03/29 12:16:59;;;;;;;;;;;14.20;73.10;;;;;;9166724;19;19931;-63
2023/03/29 12:20:16;;;;;;;;;;;14.20;73.10;;;;;;9168539;19;19915;-63
2023/03/29 12:23:23;;;;;;;;;;;14.30;73.10;;;;;;9179731;19;19923;-63
2023/03/29 12:26:35;;;;;;;;;;;14.30;73.00;;;;;;9180061;19;19954;-63
2023/03/29 12:29:50;;;;;;;;;;;14.40;73.00;;;;;;9168338;19;19926;-63
2023/03/29 12:33:15;;;;;;;;;;;14.50;73.10;;;;;;9169182;19;19922;-64
2023/03/29 12:36:46;;;;;;;;;;;14.50;73.00;;;;;;9173372;19;19927;-64
2023/03/29 12:40:18;;;;;;;;;;;14.50;73.00;;;;;;9176238;19;19918;-63
2023/03/29 12:43:42;;;;;;;;;;;14.50;73.10;;;;;;9171368;19;19922;-64
2023/03/29 12:47:07;;;;;;;;;;;14.60;73.10;;;;;;9174905;19;20321;-63
2023/03/29 12:50:17;;;;;;;;;;;14.60;73.10;;;;;;9176867;19;20385;-62
2023/03/29 12:53:25;;;;;;;;;;;14.60;73.10;;;;;;9177995;19;19911;-63
2023/03/29 12:56:40;;;;;;;;;;;14.70;73.20;;;;;;9174904;19;19922;-63
2023/03/29 12:59:48;;;;;;;;;;;14.70;73.10;;;;;;9174168;19;19915;-64
2023/03/29 13:03:00;;;;;;;;;;;14.70;73.20;;;;;;9174202;19;20704;-63
2023/03/29 13:06:08;;;;;;;;;;;14.70;73.10;;;;;;9170990;19;19914;-63
2023/03/29 13:09:21;;;;;;;;;;;14.70;73.10;;;;;;9170138;19;19955;-64
2023/03/29 13:12:30;;;;;;;;;;;14.70;73.10;;;;;;9177862;19;20241;-64
2023/03/29 13:15:38;;;;;;;;;;;14.80;73.20;;;;;;9181061;19;20359;-63
2023/03/29 13:18:49;;;;;;;;;;;14.80;73.20;;;;;;9180455;19;19933;-64
2023/03/29 13:21:58;;;;;;;;;;;14.80;73.20;;;;;;9171695;19;19919;-64
2023/03/29 13:25:15;;;;;;;;;;;14.80;73.20;;;;;;9180178;19;19922;-63
2023/03/29 13:28:23;;;;;;;;;;;14.80;73.20;;;;;;9165901;19;19930;-63
2023/03/29 13:31:33;;;;;;;;;;;14.80;73.30;;;;;;9173076;19;19922;-63
2023/03/29 13:34:41;;;;;;;;;;;14.80;73.20;;;;;;9177094;19;19914;-64
2023/03/29 13:37:53;;;;;;;;;;;14.80;73.20;;;;;;9174657;19;19923;-64
2023/03/29 13:41:01;;;;;;;;;;;14.90;73.30;;;;;;9177494;19;19915;-64
2023/03/29 13:44:26;;;;;;;;;;;14.90;73.20;;;;;;9173370;19;19923;-64
2023/03/29 13:47:38;;;;;;;;;;;14.90;73.30;;;;;;9178019;19;20314;-64
2023/03/29 13:50:53;;;;;;;;;;;14.90;73.30;;;;;;9174120;19;19918;-63
2023/03/29 13:53:59;;;;;;;;;;;14.90;73.20;;;;;;9177359;19;19919;-63
2023/03/29 13:57:09;;;;;;;;;;;14.90;73.20;;;;;;9175404;19;20254;-64
2023/03/29 14:00:19;;;;;;;;;;;14.90;73.20;;;;;;9177774;19;19926;-64
2023/03/29 14:03:28;;;;;;;;;;;14.90;73.20;;;;;;9177694;19;19921;-63
2023/03/29 14:06:35;;;;;;;;;;;14.90;73.20;;;;;;9176566;19;19921;-68
2023/03/29 14:09:42;;;;;;;;;;;14.90;73.30;;;;;;9170132;19;19926;-68
2023/03/29 14:12:47;;;;;;;;;;;14.90;73.30;;;;;;9175961;19;19922;-68
2023/03/29 14:15:57;;;;;;;;;;;14.80;73.20;;;;;;9176596;19;20268;-68
2023/03/29 14:19:03;;;;;;;;;;;14.80;73.20;;;;;;9177013;19;19974;-68
2023/03/29 14:22:10;;;;;;;;;;;14.80;73.30;;;;;;9175015;19;19922;-68
2023/03/29 14:25:14;;;;;;;;;;;14.80;73.30;;;;;;9174598;19;19919;-68
2023/03/29 14:28:21;;;;;;;;;;;14.80;73.30;;;;;;9173071;19;20360;-68
2023/03/29 14:31:27;;;;;;;;;;;14.70;73.30;;;;;;9175024;19;19922;-68
2023/03/29 14:34:34;;;;;;;;;;;14.70;73.40;;;;;;9177419;19;20641;-68
2023/03/29 14:37:37;;;;;;;;;;;14.70;73.40;;;;;;9174016;19;19974;-68
2023/03/29 14:40:44;;;;;;;;;;;14.70;73.40;;;;;;9177522;19;20364;-68
2023/03/29 14:43:48;;;;;;;;;;;14.60;73.40;;;;;;9172561;19;19926;-68
2023/03/29 14:46:56;;;;;;;;;;;14.60;73.40;;;;;;9180173;19;19915;-68
2023/03/29 14:50:01;;;;;;;;;;;14.60;73.40;;;;;;9178826;19;19982;-68
2023/03/29 14:53:09;;;;;;;;;;;14.60;74.10;;;;;;9177274;19;19906;-68
2023/03/29 14:56:16;;;;;;;;;;;14.50;73.50;;;;;;9180646;19;19950;-67
2023/03/29 14:59:27;;;;;;;;;;;14.50;73.50;;;;;;9177296;19;19915;-67
2023/03/29 15:02:36;;;;;;;;;;;14.50;73.50;;;;;;9177256;19;19923;-68
2023/03/29 15:05:43;;;;;;;;;;;14.50;73.60;;;;;;9177832;19;19918;-68
2023/03/29 15:08:47;;;;;;;;;;;14.50;73.60;;;;;;9181337;19;20351;-67
2023/03/29 15:12:07;;;;;;;;;;;14.50;73.60;;;;;;9177632;19;19922;-68
2023/03/29 15:15:12;;;;;;;;;;;14.40;73.60;;;;;;9178667;19;19922;-68
2023/03/29 15:18:24;;;;;;;;;;;14.40;73.60;;;;;;9177646;19;20253;-68
2023/03/29 15:21:32;;;;;;;;;;;14.40;73.60;;;;;;9181751;19;19955;-67
2023/03/29 15:24:43;;;;;;;;;;;14.50;73.70;;;;;;9184778;19;19914;-67
2023/03/29 15:27:50;;;;;;;;;;;14.50;73.70;;;;;;9184480;19;20264;-68
2023/03/29 15:30:58;;;;;;;;;;;14.50;73.70;;;;;;9185645;19;19933;-68
2023/03/29 15:34:14;;;;;;;;;;;14.50;73.70;;;;;;9185521;19;20686;-68
2023/03/29 15:37:20;;;;;;;;;;;14.50;73.70;;;;;;9174844;19;19922;-67
2023/03/29 15:40:26;;;;;;;;;;;14.50;73.70;;;;;;9171631;19;20351;-67
2023/03/29 15:43:33;;;;;;;;;;;14.50;74.30;;;;;;9170940;19;19915;-68
2023/03/29 15:46:37;;;;;;;;;;;14.50;73.70;;;;;;9176866;19;19922;-67
2023/03/29 15:49:47;;;;;;;;;;;14.50;73.70;;;;;;9169425;19;20347;-68
2023/03/29 15:52:54;;;;;;;;;;;14.50;73.70;;;;;;9168663;19;20333;-68
2023/03/29 15:56:11;;;;;;;;;;;14.50;73.70;;;;;;9170715;19;19922;-68
2023/03/29 15:59:16;;;;;;;;;;;14.50;73.80;;;;;;9176467;19;19925;-68
2023/03/29 16:02:24;;;;;;;;;;;14.50;73.80;;;;;;9163715;19;19919;-67
2023/03/29 16:05:29;;;;;;;;;;;14.50;73.80;;;;;;9172339;19;19919;-68
2023/03/29 16:08:39;;;;;;;;;;;14.50;73.80;;;;;;9174628;19;19922;-68
2023/03/29 16:11:45;;;;;;;;;;;14.50;73.80;;;;;;9174645;19;19923;-68
2023/03/29 16:14:50;;;;;;;;;;;14.50;73.80;;;;;;9179753;19;19911;-69
2023/03/29 16:17:55;;;;;;;;;;;14.50;73.80;;;;;;9177524;19;20345;-68
2023/03/29 16:21:03;;;;;;;;;;;14.50;73.80;;;;;;9178248;19;19911;-69
2023/03/29 16:24:08;;;;;;;;;;;14.50;73.80;;;;;;9179168;19;19919;-68
2023/03/29 16:27:14;;;;;;;;;;;14.40;73.80;;;;;;9179710;19;19915;-68
2023/03/29 16:30:18;;;;;;;;;;;14.40;73.80;;;;;;9179003;19;19923;-68
2023/03/29 16:33:24;;;;;;;;;;;14.40;73.90;;;;;;9176666;19;19944;-68
2023/03/29 16:36:31;;;;;;;;;;;14.40;73.80;;;;;;9179346;19;19923;-68
2023/03/29 16:39:37;;;;;;;;;;;14.40;73.90;;;;;;9180006;19;20268;-68
2023/03/29 16:42:42;;;;;;;;;;;14.40;73.90;;;;;;9174388;19;19919;-68
2023/03/29 16:45:48;;;;;;;;;;;14.40;73.90;;;;;;9180638;19;19923;-68
2023/03/29 16:48:52;;;;;;;;;;;14.40;74.00;;;;;;9182221;19;19938;-68
2023/03/29 16:52:00;;;;;;;;;;;14.40;74.00;;;;;;9178204;19;20273;-68
2023/03/29 16:55:05;;;;;;;;;;;14.40;73.90;;;;;;9177535;19;20018;-68
2023/03/29 16:58:10;;;;;;;;;;;14.30;73.90;;;;;;9175958;19;19918;-68
2023/03/29 17:01:16;;;;;;;;;;;14.30;74.00;;;;;;9181900;19;20408;-68
2023/03/29 17:04:21;;;;;;;;;;;14.30;74.00;;;;;;9178790;19;19922;-68
2023/03/29 17:07:28;;;;;;;;;;;14.30;74.00;;;;;;9179594;19;19922;-67
2023/03/29 17:10:34;;;;;;;;;;;14.30;74.10;;;;;;9179206;19;20352;-68
2023/03/29 17:13:42;;;;;;;;;;;14.30;74.00;;;;;;9177565;19;20261;-68
2023/03/29 17:16:48;;;;;;;;;;;14.30;74.00;;;;;;9175379;19;19926;-68
2023/03/29 17:19:53;;;;;;;;;;;14.30;74.10;;;;;;9178102;19;19922;-68
2023/03/29 17:23:01;;;;;;;;;;;14.30;74.10;;;;;;9177783;19;19915;-68
2023/03/29 17:26:06;;;;;;;;;;;14.20;74.10;;;;;;9170720;19;19933;-68
2023/03/29 17:29:12;;;;;;;;;;;14.20;74.10;;;;;;9171944;19;19930;-68
2023/03/29 17:32:16;;;;;;;;;;;14.20;74.10;;;;;;9171936;19;19914;-68
2023/03/29 17:35:22;;;;;;;;;;;14.20;74.10;;;;;;9173478;19;19927;-68
2023/03/29 17:38:29;;;;;;;;;;;14.10;74.10;;;;;;9170564;19;19923;-68
2023/03/29 17:41:35;;;;;;;;;;;14.10;74.10;;;;;;9173551;19;19925;-68
2023/03/29 17:44:38;;;;;;;;;;;14.10;74.10;;;;;;9164576;19;20699;-68
2023/03/29 17:47:44;;;;;;;;;;;14.10;74.20;;;;;;9162870;19;19914;-68
2023/03/29 17:50:48;;;;;;;;;;;14.10;74.20;;;;;;9162778;19;19922;-69
2023/03/29 17:54:00;;;;;;;;;;;14.00;74.20;;;;;;9163510;19;19914;-69
2023/03/29 17:57:04;;;;;;;;;;;14.00;74.20;;;;;;9163483;19;19929;-69
2023/03/29 18:00:11;;;;;;;;;;;14.00;74.20;;;;;;9163008;19;20355;-69
2023/03/29 18:03:15;;;;;;;;;;;14.00;74.20;;;;;;9164521;19;19938;-69
2023/03/29 18:06:24;;;;;;;;;;;14.00;74.30;;;;;;9170053;19;20246;-69
2023/03/29 18:09:30;;;;;;;;;;;14.00;74.30;;;;;;9166154;19;19930;-69
2023/03/29 18:12:36;;;;;;;;;;;14.00;74.30;;;;;;9169394;19;19929;-69
2023/03/29 18:15:40;;;;;;;;;;;13.90;74.30;;;;;;9167866;19;19933;-69
2023/03/29 18:18:47;;;;;;;;;;;13.90;74.30;;;;;;9166582;19;20564;-68
2023/03/29 18:21:51;;;;;;;;;;;13.90;74.30;;;;;;9169814;19;20238;-69
2023/03/29 18:24:59;;;;;;;;;;;13.80;74.30;;;;;;9167968;19;19919;-68
2023/03/29 18:28:03;;;;;;;;;;;13.80;74.30;;;;;;9168106;19;19926;-68
2023/03/29 18:31:09;;;;;;;;;;;13.80;74.40;;;;;;9169051;19;19915;-68